<?xml version='1.0' encoding='UTF-8'?>
<gpx xmlns="http://www.topografix.com/GPX/1/1" creator="www.balnam.be" version="1.1" xmlns:xsi="http://www.w3.org/2001/XMLSchema-instance" xsi:schemaLocation="http://www.topografix.com/GPX/1/1 http://www.topografix.com/GPX/1/1/gpx.xsd">
<trk>
<name>lpbhm39</name>
<cmt>v</cmt>
<desc>Hombourg Chemin n°39 Heyerdalerveldweg</desc>
<link href="https://chemins.be/hombourg/chemin/39"/><trkseg>
<trkpt lat="50.730985" lon="5.912208"><time>2026-05-06T22:09:41Z</time></trkpt>
<trkpt lat="50.731199" lon="5.912371"><time>2026-05-06T22:19:41Z</time></trkpt>
<trkpt lat="50.731429" lon="5.912676"><time>2026-05-06T22:29:41Z</time></trkpt>
<trkpt lat="50.732068" lon="5.913306"><time>2026-05-06T22:39:41Z</time></trkpt>
<trkpt lat="50.732646" lon="5.913778"><time>2026-05-06T22:49:41Z</time></trkpt>
<trkpt lat="50.732726" lon="5.913866"><time>2026-05-06T22:59:41Z</time></trkpt>
<trkpt lat="50.733401" lon="5.915206"><time>2026-05-06T23:09:41Z</time></trkpt>
<trkpt lat="50.733540" lon="5.915522"><time>2026-05-06T23:19:41Z</time></trkpt>
<trkpt lat="50.733618" lon="5.915765"><time>2026-05-06T23:29:41Z</time></trkpt>
<trkpt lat="50.733821" lon="5.916056"><time>2026-05-06T23:39:41Z</time></trkpt>
<trkpt lat="50.734007" lon="5.916246"><time>2026-05-06T23:49:41Z</time></trkpt>
<trkpt lat="50.734363" lon="5.916541"><time>2026-05-06T23:59:41Z</time></trkpt>
<trkpt lat="50.734497" lon="5.916630"><time>2026-05-07T00:09:41Z</time></trkpt>
<trkpt lat="50.734530" lon="5.916801"><time>2026-05-07T00:19:41Z</time></trkpt>
<trkpt lat="50.734574" lon="5.916874"><time>2026-05-07T00:29:41Z</time></trkpt>
<trkpt lat="50.734690" lon="5.916963"><time>2026-05-07T00:39:41Z</time></trkpt>
<trkpt lat="50.734885" lon="5.917196"><time>2026-05-07T00:49:41Z</time></trkpt>
<trkpt lat="50.735229" lon="5.916994"><time>2026-05-07T00:59:41Z</time></trkpt>
<trkpt lat="50.735895" lon="5.918292"><time>2026-05-07T01:09:41Z</time></trkpt>
<trkpt lat="50.736617" lon="5.919160"><time>2026-05-07T01:19:41Z</time></trkpt>
<trkpt lat="50.736896" lon="5.919306"><time>2026-05-07T01:29:41Z</time></trkpt>
<trkpt lat="50.737178" lon="5.919212"><time>2026-05-07T01:39:41Z</time></trkpt>
</trkseg></trk>
<trk>
<name>lpbhm39</name>
<cmt>s</cmt>
<desc>Hombourg Chemin n°39 Heyerdalerveldweg</desc>
<link href="https://chemins.be/hombourg/chemin/39"/><trkseg>
<trkpt lat="50.737178" lon="5.919212"><time>2026-05-07T01:39:41Z</time></trkpt>
<trkpt lat="50.737344" lon="5.917532"><time>2026-05-07T01:49:41Z</time></trkpt>
<trkpt lat="50.737853" lon="5.917166"><time>2026-05-07T01:59:41Z</time></trkpt>
</trkseg>
</trk>
</gpx>